Terminal Aerodrome Forecast
Issued by NWS

Home | Current Version | Previous Version | Text Only | Print | Product List | Glossary On
Versions: 1 2 3 4 5 6 7 8 9 10 11 12 13 14 15 16 17 18 19 20 21 22
828
FTUS42 KMHX 240234 AAA
TAFOAJ
TAF AMD
KOAJ 240234Z 2403/2424 28007KT P6SM BKN025
     FM240600 29007KT P6SM SCT007 BKN015
     FM241300 29010G18KT P6SM SCT040
      AMD LTD TO CLD VIS AND WIND=

USA.gov is the U.S. government's official web portal to all federal, state and local government web resources and services.